sensor_id;sensor_type;location;lat;lon;timestamp;temperature;humidity
14908;DHT22;7545;52.092;7.006;2022-10-17T00:01:00;14.10;99.90
14908;DHT22;7545;52.092;7.006;2022-10-17T00:03:26;14.10;99.90
14908;DHT22;7545;52.092;7.006;2022-10-17T00:05:55;14.20;99.90
14908;DHT22;7545;52.092;7.006;2022-10-17T00:08:21;14.20;99.90
14908;DHT22;7545;52.092;7.006;2022-10-17T00:10:59;14.20;99.90
14908;DHT22;7545;52.092;7.006;2022-10-17T00:13:25;14.10;99.90
14908;DHT22;7545;52.092;7.006;2022-10-17T00:15:50;14.10;99.90
14908;DHT22;7545;52.092;7.006;2022-10-17T00:18:16;14.10;99.90
14908;DHT22;7545;52.092;7.006;2022-10-17T00:20:42;14.10;99.90
14908;DHT22;7545;52.092;7.006;2022-10-17T00:23:07;14.10;99.90
14908;DHT22;7545;52.092;7.006;2022-10-17T00:25:33;14.10;99.90
14908;DHT22;7545;52.092;7.006;2022-10-17T00:27:58;14.10;99.90
14908;DHT22;7545;52.092;7.006;2022-10-17T00:30:24;14.10;99.90
14908;DHT22;7545;52.092;7.006;2022-10-17T00:32:49;14.10;99.90
14908;DHT22;7545;52.092;7.006;2022-10-17T00:35:15;14.10;99.90
14908;DHT22;7545;52.092;7.006;2022-10-17T00:37:41;14.10;99.90
14908;DHT22;7545;52.092;7.006;2022-10-17T00:40:07;14.10;99.90
14908;DHT22;7545;52.092;7.006;2022-10-17T00:42:33;14.10;99.90
14908;DHT22;7545;52.092;7.006;2022-10-17T00:47:27;14.00;99.90
14908;DHT22;7545;52.092;7.006;2022-10-17T00:49:53;14.00;99.90
14908;DHT22;7545;52.092;7.006;2022-10-17T00:52:27;14.00;99.90
14908;DHT22;7545;52.092;7.006;2022-10-17T00:55:28;14.00;99.90
14908;DHT22;7545;52.092;7.006;2022-10-17T00:57:54;14.00;99.90
14908;DHT22;7545;52.092;7.006;2022-10-17T01:00:20;14.00;99.90
14908;DHT22;7545;52.092;7.006;2022-10-17T01:02:47;14.00;99.90
14908;DHT22;7545;52.092;7.006;2022-10-17T01:05:13;14.00;99.90
14908;DHT22;7545;52.092;7.006;2022-10-17T01:07:40;14.00;99.90
14908;DHT22;7545;52.092;7.006;2022-10-17T01:10:07;14.00;99.90
14908;DHT22;7545;52.092;7.006;2022-10-17T01:12:56;14.10;99.90
14908;DHT22;7545;52.092;7.006;2022-10-17T01:15:46;14.10;99.90
14908;DHT22;7545;52.092;7.006;2022-10-17T01:32:23;14.00;99.90
14908;DHT22;7545;52.092;7.006;2022-10-17T01:34:56;14.00;99.90
14908;DHT22;7545;52.092;7.006;2022-10-17T01:37:39;14.00;99.90
14908;DHT22;7545;52.092;7.006;2022-10-17T01:40:32;14.00;99.90
14908;DHT22;7545;52.092;7.006;2022-10-17T01:43:06;14.00;99.90
14908;DHT22;7545;52.092;7.006;2022-10-17T01:45:40;14.00;99.90
14908;DHT22;7545;52.092;7.006;2022-10-17T01:48:13;14.00;99.90
14908;DHT22;7545;52.092;7.006;2022-10-17T01:50:50;14.00;99.90
14908;DHT22;7545;52.092;7.006;2022-10-17T01:53:32;14.00;99.90
14908;DHT22;7545;52.092;7.006;2022-10-17T01:56:01;14.00;99.90
14908;DHT22;7545;52.092;7.006;2022-10-17T01:58:32;14.00;99.90
14908;DHT22;7545;52.092;7.006;2022-10-17T02:01:00;14.00;99.90
14908;DHT22;7545;52.092;7.006;2022-10-17T02:03:27;14.10;99.90
14908;DHT22;7545;52.092;7.006;2022-10-17T02:05:54;14.00;99.90
14908;DHT22;7545;52.092;7.006;2022-10-17T02:08:25;14.00;99.90
14908;DHT22;7545;52.092;7.006;2022-10-17T02:11:01;14.00;99.90
14908;DHT22;7545;52.092;7.006;2022-10-17T02:14:10;14.00;99.90
14908;DHT22;7545;52.092;7.006;2022-10-17T02:16:51;14.00;99.90
14908;DHT22;7545;52.092;7.006;2022-10-17T02:25:11;14.00;99.90
14908;DHT22;7545;52.092;7.006;2022-10-17T02:28:36;14.00;99.90
14908;DHT22;7545;52.092;7.006;2022-10-17T02:33:18;14.00;99.90
14908;DHT22;7545;52.092;7.006;2022-10-17T02:35:48;14.00;99.90
14908;DHT22;7545;52.092;7.006;2022-10-17T02:38:17;14.00;99.90
14908;DHT22;7545;52.092;7.006;2022-10-17T02:40:44;14.00;99.90
14908;DHT22;7545;52.092;7.006;2022-10-17T02:43:11;14.00;99.90
14908;DHT22;7545;52.092;7.006;2022-10-17T02:45:38;14.00;99.90
14908;DHT22;7545;52.092;7.006;2022-10-17T02:48:17;14.00;99.90
14908;DHT22;7545;52.092;7.006;2022-10-17T02:51:01;14.00;99.90
14908;DHT22;7545;52.092;7.006;2022-10-17T02:53:34;14.00;99.90
14908;DHT22;7545;52.092;7.006;2022-10-17T02:56:07;14.00;99.90
14908;DHT22;7545;52.092;7.006;2022-10-17T02:58:36;14.00;99.90
14908;DHT22;7545;52.092;7.006;2022-10-17T03:01:03;14.00;99.90
14908;DHT22;7545;52.092;7.006;2022-10-17T03:03:31;14.00;99.90
14908;DHT22;7545;52.092;7.006;2022-10-17T03:05:57;14.00;99.90
14908;DHT22;7545;52.092;7.006;2022-10-17T03:08:23;14.00;99.90
14908;DHT22;7545;52.092;7.006;2022-10-17T03:10:49;14.00;99.90
14908;DHT22;7545;52.092;7.006;2022-10-17T03:13:15;14.00;99.90
14908;DHT22;7545;52.092;7.006;2022-10-17T03:15:41;14.00;99.90
14908;DHT22;7545;52.092;7.006;2022-10-17T03:18:06;14.10;99.90
14908;DHT22;7545;52.092;7.006;2022-10-17T03:20:32;14.10;99.90
14908;DHT22;7545;52.092;7.006;2022-10-17T03:22:58;14.10;99.90
14908;DHT22;7545;52.092;7.006;2022-10-17T03:25:23;14.10;99.90
14908;DHT22;7545;52.092;7.006;2022-10-17T03:27:49;14.10;99.90
14908;DHT22;7545;52.092;7.006;2022-10-17T03:30:15;14.10;99.90
14908;DHT22;7545;52.092;7.006;2022-10-17T03:32:40;14.10;99.90
14908;DHT22;7545;52.092;7.006;2022-10-17T03:35:06;14.10;99.90
14908;DHT22;7545;52.092;7.006;2022-10-17T03:37:32;14.10;99.90
14908;DHT22;7545;52.092;7.006;2022-10-17T03:39:57;14.10;99.90
14908;DHT22;7545;52.092;7.006;2022-10-17T03:42:23;14.10;99.90
14908;DHT22;7545;52.092;7.006;2022-10-17T03:44:48;14.10;99.90
14908;DHT22;7545;52.092;7.006;2022-10-17T03:47:14;14.10;99.90
14908;DHT22;7545;52.092;7.006;2022-10-17T03:49:40;14.20;99.90
14908;DHT22;7545;52.092;7.006;2022-10-17T03:52:05;14.10;99.90
14908;DHT22;7545;52.092;7.006;2022-10-17T03:54:31;14.20;99.90
14908;DHT22;7545;52.092;7.006;2022-10-17T03:56:56;14.20;99.90
14908;DHT22;7545;52.092;7.006;2022-10-17T03:59:22;14.20;99.90
14908;DHT22;7545;52.092;7.006;2022-10-17T04:01:47;14.30;99.90
14908;DHT22;7545;52.092;7.006;2022-10-17T04:04:41;14.30;99.90
14908;DHT22;7545;52.092;7.006;2022-10-17T04:07:06;14.30;99.90
14908;DHT22;7545;52.092;7.006;2022-10-17T04:09:31;14.30;99.90
14908;DHT22;7545;52.092;7.006;2022-10-17T04:11:57;14.40;99.90
14908;DHT22;7545;52.092;7.006;2022-10-17T04:14:22;14.40;99.90
14908;DHT22;7545;52.092;7.006;2022-10-17T04:16:48;14.40;99.90
14908;DHT22;7545;52.092;7.006;2022-10-17T04:19:14;14.40;99.90
14908;DHT22;7545;52.092;7.006;2022-10-17T04:21:39;14.40;99.90
14908;DHT22;7545;52.092;7.006;2022-10-17T04:24:05;14.40;99.90
14908;DHT22;7545;52.092;7.006;2022-10-17T04:26:30;14.50;99.90
14908;DHT22;7545;52.092;7.006;2022-10-17T04:28:56;14.50;99.90
14908;DHT22;7545;52.092;7.006;2022-10-17T04:31:22;14.50;99.90
14908;DHT22;7545;52.092;7.006;2022-10-17T04:33:49;14.50;99.90
14908;DHT22;7545;52.092;7.006;2022-10-17T04:36:17;14.60;99.90
14908;DHT22;7545;52.092;7.006;2022-10-17T04:38:43;14.60;99.90
14908;DHT22;7545;52.092;7.006;2022-10-17T04:41:13;14.60;99.90
14908;DHT22;7545;52.092;7.006;2022-10-17T04:43:40;14.60;99.90
14908;DHT22;7545;52.092;7.006;2022-10-17T04:46:08;14.60;99.90
14908;DHT22;7545;52.092;7.006;2022-10-17T04:48:34;14.50;99.90
14908;DHT22;7545;52.092;7.006;2022-10-17T04:51:05;14.60;99.90
14908;DHT22;7545;52.092;7.006;2022-10-17T04:53:33;14.70;99.90
14908;DHT22;7545;52.092;7.006;2022-10-17T04:55:59;14.70;99.90
14908;DHT22;7545;52.092;7.006;2022-10-17T04:58:27;14.60;99.90
14908;DHT22;7545;52.092;7.006;2022-10-17T05:00:52;14.70;99.90
14908;DHT22;7545;52.092;7.006;2022-10-17T05:03:18;14.70;99.90
14908;DHT22;7545;52.092;7.006;2022-10-17T05:05:43;14.70;99.90
14908;DHT22;7545;52.092;7.006;2022-10-17T05:08:10;14.70;99.90
14908;DHT22;7545;52.092;7.006;2022-10-17T05:10:37;14.70;99.90
14908;DHT22;7545;52.092;7.006;2022-10-17T05:13:03;14.70;99.90
14908;DHT22;7545;52.092;7.006;2022-10-17T05:15:29;14.70;99.90
14908;DHT22;7545;52.092;7.006;2022-10-17T05:17:55;14.70;99.90
14908;DHT22;7545;52.092;7.006;2022-10-17T05:20:21;14.70;99.90
14908;DHT22;7545;52.092;7.006;2022-10-17T05:22:47;14.70;99.90
14908;DHT22;7545;52.092;7.006;2022-10-17T05:25:13;14.70;99.90
14908;DHT22;7545;52.092;7.006;2022-10-17T05:27:38;14.70;99.90
14908;DHT22;7545;52.092;7.006;2022-10-17T05:30:05;14.70;99.90
14908;DHT22;7545;52.092;7.006;2022-10-17T05:32:31;14.70;99.90
14908;DHT22;7545;52.092;7.006;2022-10-17T05:34:57;14.80;99.90
14908;DHT22;7545;52.092;7.006;2022-10-17T05:37:22;14.80;99.90
14908;DHT22;7545;52.092;7.006;2022-10-17T05:39:48;14.80;99.90
14908;DHT22;7545;52.092;7.006;2022-10-17T05:42:14;14.80;99.90
14908;DHT22;7545;52.092;7.006;2022-10-17T05:44:39;14.80;99.90
14908;DHT22;7545;52.092;7.006;2022-10-17T05:47:06;14.80;99.90
14908;DHT22;7545;52.092;7.006;2022-10-17T05:49:32;14.80;99.90
14908;DHT22;7545;52.092;7.006;2022-10-17T05:51:58;14.80;99.90
14908;DHT22;7545;52.092;7.006;2022-10-17T05:54:23;14.80;99.90
14908;DHT22;7545;52.092;7.006;2022-10-17T05:56:53;14.80;99.90
14908;DHT22;7545;52.092;7.006;2022-10-17T05:59:20;14.90;99.90
14908;DHT22;7545;52.092;7.006;2022-10-17T06:01:46;14.80;99.90
14908;DHT22;7545;52.092;7.006;2022-10-17T06:04:12;14.90;99.90
14908;DHT22;7545;52.092;7.006;2022-10-17T06:06:38;14.90;99.90
14908;DHT22;7545;52.092;7.006;2022-10-17T06:09:04;14.90;99.90
14908;DHT22;7545;52.092;7.006;2022-10-17T06:11:30;14.90;99.90
14908;DHT22;7545;52.092;7.006;2022-10-17T06:13:56;14.90;99.90
14908;DHT22;7545;52.092;7.006;2022-10-17T06:16:22;14.90;99.90
14908;DHT22;7545;52.092;7.006;2022-10-17T06:18:47;14.90;99.90
14908;DHT22;7545;52.092;7.006;2022-10-17T06:21:16;14.90;99.90
14908;DHT22;7545;52.092;7.006;2022-10-17T06:23:43;14.90;99.90
14908;DHT22;7545;52.092;7.006;2022-10-17T06:26:09;14.90;99.90
14908;DHT22;7545;52.092;7.006;2022-10-17T06:28:35;15.00;99.90
14908;DHT22;7545;52.092;7.006;2022-10-17T06:31:09;15.00;99.90
14908;DHT22;7545;52.092;7.006;2022-10-17T06:33:35;15.00;99.90
14908;DHT22;7545;52.092;7.006;2022-10-17T06:36:01;15.00;99.90
14908;DHT22;7545;52.092;7.006;2022-10-17T06:38:26;15.00;99.90
14908;DHT22;7545;52.092;7.006;2022-10-17T06:40:52;15.00;99.90
14908;DHT22;7545;52.092;7.006;2022-10-17T06:43:22;15.00;99.90
14908;DHT22;7545;52.092;7.006;2022-10-17T06:45:47;15.00;99.90
14908;DHT22;7545;52.092;7.006;2022-10-17T06:48:13;15.10;99.90
14908;DHT22;7545;52.092;7.006;2022-10-17T06:50:39;15.10;99.90
14908;DHT22;7545;52.092;7.006;2022-10-17T06:53:04;15.10;99.90
14908;DHT22;7545;52.092;7.006;2022-10-17T06:55:31;15.10;99.90
14908;DHT22;7545;52.092;7.006;2022-10-17T06:57:57;15.10;99.90
14908;DHT22;7545;52.092;7.006;2022-10-17T07:00:22;15.10;99.90
14908;DHT22;7545;52.092;7.006;2022-10-17T07:02:48;15.10;99.90
14908;DHT22;7545;52.092;7.006;2022-10-17T07:05:14;15.20;99.90
14908;DHT22;7545;52.092;7.006;2022-10-17T07:07:39;15.20;99.90
14908;DHT22;7545;52.092;7.006;2022-10-17T07:10:05;15.20;99.90
14908;DHT22;7545;52.092;7.006;2022-10-17T07:12:35;15.20;99.90
14908;DHT22;7545;52.092;7.006;2022-10-17T07:15:00;15.20;99.90
14908;DHT22;7545;52.092;7.006;2022-10-17T07:17:28;15.20;99.90
14908;DHT22;7545;52.092;7.006;2022-10-17T07:19:54;15.20;99.90
14908;DHT22;7545;52.092;7.006;2022-10-17T07:22:19;15.30;99.90
14908;DHT22;7545;52.092;7.006;2022-10-17T07:24:45;15.30;99.90
14908;DHT22;7545;52.092;7.006;2022-10-17T07:27:12;15.30;99.90
14908;DHT22;7545;52.092;7.006;2022-10-17T07:29:37;15.30;99.90
14908;DHT22;7545;52.092;7.006;2022-10-17T07:32:03;15.40;99.90
14908;DHT22;7545;52.092;7.006;2022-10-17T07:34:33;15.40;99.90
14908;DHT22;7545;52.092;7.006;2022-10-17T07:36:59;15.40;99.90
14908;DHT22;7545;52.092;7.006;2022-10-17T07:39:24;15.50;99.90
14908;DHT22;7545;52.092;7.006;2022-10-17T07:41:50;15.50;99.90
14908;DHT22;7545;52.092;7.006;2022-10-17T07:44:15;15.60;99.90
14908;DHT22;7545;52.092;7.006;2022-10-17T07:46:41;15.60;99.90
14908;DHT22;7545;52.092;7.006;2022-10-17T07:49:07;15.60;99.90
14908;DHT22;7545;52.092;7.006;2022-10-17T07:51:32;15.70;99.90
14908;DHT22;7545;52.092;7.006;2022-10-17T07:53:58;15.70;99.90
14908;DHT22;7545;52.092;7.006;2022-10-17T07:56:24;15.80;99.90
14908;DHT22;7545;52.092;7.006;2022-10-17T07:58:51;15.80;99.90
14908;DHT22;7545;52.092;7.006;2022-10-17T08:01:16;15.80;99.90
14908;DHT22;7545;52.092;7.006;2022-10-17T08:03:44;15.90;99.90
14908;DHT22;7545;52.092;7.006;2022-10-17T08:06:10;15.90;99.90
14908;DHT22;7545;52.092;7.006;2022-10-17T08:08:35;15.90;99.90
14908;DHT22;7545;52.092;7.006;2022-10-17T08:11:06;15.90;99.90
14908;DHT22;7545;52.092;7.006;2022-10-17T08:13:32;16.00;99.90
14908;DHT22;7545;52.092;7.006;2022-10-17T08:16:02;16.00;99.90
14908;DHT22;7545;52.092;7.006;2022-10-17T08:18:28;16.00;99.90
14908;DHT22;7545;52.092;7.006;2022-10-17T08:20:57;16.10;99.90
14908;DHT22;7545;52.092;7.006;2022-10-17T08:23:23;16.10;99.90
14908;DHT22;7545;52.092;7.006;2022-10-17T08:25:48;16.20;99.90
14908;DHT22;7545;52.092;7.006;2022-10-17T08:28:14;16.20;99.90
14908;DHT22;7545;52.092;7.006;2022-10-17T08:30:40;16.30;99.90
14908;DHT22;7545;52.092;7.006;2022-10-17T08:33:05;16.30;99.90
14908;DHT22;7545;52.092;7.006;2022-10-17T08:35:31;16.40;99.90
14908;DHT22;7545;52.092;7.006;2022-10-17T08:37:58;16.40;99.90
14908;DHT22;7545;52.092;7.006;2022-10-17T08:40:27;16.50;99.90
14908;DHT22;7545;52.092;7.006;2022-10-17T08:43:30;16.50;99.90
14908;DHT22;7545;52.092;7.006;2022-10-17T08:46:00;16.60;99.90
14908;DHT22;7545;52.092;7.006;2022-10-17T08:48:30;16.60;99.90
14908;DHT22;7545;52.092;7.006;2022-10-17T08:51:01;16.70;99.90
14908;DHT22;7545;52.092;7.006;2022-10-17T08:53:40;16.70;99.90
14908;DHT22;7545;52.092;7.006;2022-10-17T08:56:18;16.70;99.90
14908;DHT22;7545;52.092;7.006;2022-10-17T08:58:44;16.70;99.90
14908;DHT22;7545;52.092;7.006;2022-10-17T09:04:10;16.80;99.90
14908;DHT22;7545;52.092;7.006;2022-10-17T09:09:39;16.90;99.90
14908;DHT22;7545;52.092;7.006;2022-10-17T09:17:56;17.10;99.90
14908;DHT22;7545;52.092;7.006;2022-10-17T09:20:25;17.20;99.90
14908;DHT22;7545;52.092;7.006;2022-10-17T09:22:59;17.20;99.90
14908;DHT22;7545;52.092;7.006;2022-10-17T09:25:26;17.30;99.90
14908;DHT22;7545;52.092;7.006;2022-10-17T09:28:16;17.30;99.90
14908;DHT22;7545;52.092;7.006;2022-10-17T09:30:51;17.30;99.90
14908;DHT22;7545;52.092;7.006;2022-10-17T09:33:25;17.30;99.90
14908;DHT22;7545;52.092;7.006;2022-10-17T09:35:53;17.40;99.90
14908;DHT22;7545;52.092;7.006;2022-10-17T09:38:21;17.40;99.90
14908;DHT22;7545;52.092;7.006;2022-10-17T09:40:55;17.40;99.90
14908;DHT22;7545;52.092;7.006;2022-10-17T09:43:21;17.40;99.90
14908;DHT22;7545;52.092;7.006;2022-10-17T09:46:04;17.40;99.90
14908;DHT22;7545;52.092;7.006;2022-10-17T09:48:48;17.50;99.90
14908;DHT22;7545;52.092;7.006;2022-10-17T09:51:16;17.50;99.90
14908;DHT22;7545;52.092;7.006;2022-10-17T09:53:48;17.60;99.90
14908;DHT22;7545;52.092;7.006;2022-10-17T09:56:17;17.60;99.90
14908;DHT22;7545;52.092;7.006;2022-10-17T09:58:46;17.60;99.90
14908;DHT22;7545;52.092;7.006;2022-10-17T10:01:19;17.60;99.90
14908;DHT22;7545;52.092;7.006;2022-10-17T10:03:45;17.60;99.90
14908;DHT22;7545;52.092;7.006;2022-10-17T10:06:12;17.60;99.90
14908;DHT22;7545;52.092;7.006;2022-10-17T10:08:53;17.60;99.90
14908;DHT22;7545;52.092;7.006;2022-10-17T10:11:24;17.60;99.90
14908;DHT22;7545;52.092;7.006;2022-10-17T10:13:51;17.70;99.90
14908;DHT22;7545;52.092;7.006;2022-10-17T10:16:43;17.70;99.90
14908;DHT22;7545;52.092;7.006;2022-10-17T10:19:25;17.70;99.90
14908;DHT22;7545;52.092;7.006;2022-10-17T10:21:57;17.70;99.90
14908;DHT22;7545;52.092;7.006;2022-10-17T10:24:23;17.60;99.90
14908;DHT22;7545;52.092;7.006;2022-10-17T10:26:50;17.70;99.90
14908;DHT22;7545;52.092;7.006;2022-10-17T10:29:28;17.60;99.90
14908;DHT22;7545;52.092;7.006;2022-10-17T10:32:17;17.60;99.90
14908;DHT22;7545;52.092;7.006;2022-10-17T10:37:26;17.50;99.90
14908;DHT22;7545;52.092;7.006;2022-10-17T10:40:03;17.50;99.90
14908;DHT22;7545;52.092;7.006;2022-10-17T10:42:36;17.50;99.90
14908;DHT22;7545;52.092;7.006;2022-10-17T10:45:18;17.50;99.90
14908;DHT22;7545;52.092;7.006;2022-10-17T10:47:59;17.50;99.90
14908;DHT22;7545;52.092;7.006;2022-10-17T10:50:39;17.40;99.90
14908;DHT22;7545;52.092;7.006;2022-10-17T11:06:41;17.30;99.90
14908;DHT22;7545;52.092;7.006;2022-10-17T11:12:09;17.20;99.90
14908;DHT22;7545;52.092;7.006;2022-10-17T11:14:52;17.20;99.90
14908;DHT22;7545;52.092;7.006;2022-10-17T11:22:46;17.20;99.90
14908;DHT22;7545;52.092;7.006;2022-10-17T11:25:38;17.20;99.90
14908;DHT22;7545;52.092;7.006;2022-10-17T11:28:19;17.20;99.90
14908;DHT22;7545;52.092;7.006;2022-10-17T11:30:59;17.10;99.90
14908;DHT22;7545;52.092;7.006;2022-10-17T11:36:14;17.10;99.90
14908;DHT22;7545;52.092;7.006;2022-10-17T11:41:26;17.10;99.90
14908;DHT22;7545;52.092;7.006;2022-10-17T11:44:12;17.10;99.90
14908;DHT22;7545;52.092;7.006;2022-10-17T11:46:40;17.10;99.90
14908;DHT22;7545;52.092;7.006;2022-10-17T11:49:21;17.10;99.90
14908;DHT22;7545;52.092;7.006;2022-10-17T11:54:55;17.10;99.90
14908;DHT22;7545;52.092;7.006;2022-10-17T12:05:27;17.10;99.90
14908;DHT22;7545;52.092;7.006;2022-10-17T12:08:10;17.10;99.90
14908;DHT22;7545;52.092;7.006;2022-10-17T12:15:52;17.20;99.90
14908;DHT22;7545;52.092;7.006;2022-10-17T12:18:18;17.20;99.90
14908;DHT22;7545;52.092;7.006;2022-10-17T12:20:55;17.30;99.90
14908;DHT22;7545;52.092;7.006;2022-10-17T12:23:26;17.30;99.90
14908;DHT22;7545;52.092;7.006;2022-10-17T12:25:58;17.30;99.90
14908;DHT22;7545;52.092;7.006;2022-10-17T12:28:39;17.30;99.90
14908;DHT22;7545;52.092;7.006;2022-10-17T12:38:42;17.40;99.90
14908;DHT22;7545;52.092;7.006;2022-10-17T12:41:08;17.40;99.90
14908;DHT22;7545;52.092;7.006;2022-10-17T12:43:36;17.40;99.90
14908;DHT22;7545;52.092;7.006;2022-10-17T12:46:07;17.40;99.90
14908;DHT22;7545;52.092;7.006;2022-10-17T12:51:11;17.40;99.90
14908;DHT22;7545;52.092;7.006;2022-10-17T12:53:56;17.40;99.90
14908;DHT22;7545;52.092;7.006;2022-10-17T12:56:46;17.40;99.90
14908;DHT22;7545;52.092;7.006;2022-10-17T12:59:21;17.40;99.90
14908;DHT22;7545;52.092;7.006;2022-10-17T13:01:51;17.40;99.90
14908;DHT22;7545;52.092;7.006;2022-10-17T13:04:18;17.40;99.90
14908;DHT22;7545;52.092;7.006;2022-10-17T13:06:51;17.30;99.90
14908;DHT22;7545;52.092;7.006;2022-10-17T13:09:34;17.30;99.90
14908;DHT22;7545;52.092;7.006;2022-10-17T13:12:03;17.30;99.90
14908;DHT22;7545;52.092;7.006;2022-10-17T13:14:30;17.30;99.90
14908;DHT22;7545;52.092;7.006;2022-10-17T13:16:59;17.30;99.90
14908;DHT22;7545;52.092;7.006;2022-10-17T13:19:31;17.30;99.90
14908;DHT22;7545;52.092;7.006;2022-10-17T13:22:09;17.30;99.90
14908;DHT22;7545;52.092;7.006;2022-10-17T13:24:38;17.30;99.90
14908;DHT22;7545;52.092;7.006;2022-10-17T13:27:05;17.30;99.90
14908;DHT22;7545;52.092;7.006;2022-10-17T13:29:32;17.20;99.90
14908;DHT22;7545;52.092;7.006;2022-10-17T13:31:59;17.20;99.90
14908;DHT22;7545;52.092;7.006;2022-10-17T13:34:26;17.20;99.90
14908;DHT22;7545;52.092;7.006;2022-10-17T13:37:13;17.20;99.90
14908;DHT22;7545;52.092;7.006;2022-10-17T13:39:41;17.20;99.90
14908;DHT22;7545;52.092;7.006;2022-10-17T13:42:26;17.20;99.90
14908;DHT22;7545;52.092;7.006;2022-10-17T13:44:52;17.20;99.90
14908;DHT22;7545;52.092;7.006;2022-10-17T13:47:27;17.20;99.90
14908;DHT22;7545;52.092;7.006;2022-10-17T13:49:54;17.20;99.90
14908;DHT22;7545;52.092;7.006;2022-10-17T13:52:22;17.20;99.90
14908;DHT22;7545;52.092;7.006;2022-10-17T13:54:51;17.20;99.90
14908;DHT22;7545;52.092;7.006;2022-10-17T13:57:28;17.20;99.90
14908;DHT22;7545;52.092;7.006;2022-10-17T14:00:06;17.10;99.90
14908;DHT22;7545;52.092;7.006;2022-10-17T14:02:33;17.20;99.90
14908;DHT22;7545;52.092;7.006;2022-10-17T14:05:10;17.20;99.90
14908;DHT22;7545;52.092;7.006;2022-10-17T14:07:43;17.20;99.90
14908;DHT22;7545;52.092;7.006;2022-10-17T14:10:29;17.20;99.90
14908;DHT22;7545;52.092;7.006;2022-10-17T14:12:56;17.20;99.90
14908;DHT22;7545;52.092;7.006;2022-10-17T14:15:28;17.20;99.90
14908;DHT22;7545;52.092;7.006;2022-10-17T14:17:58;17.20;99.90
14908;DHT22;7545;52.092;7.006;2022-10-17T14:20:24;17.20;99.90
14908;DHT22;7545;52.092;7.006;2022-10-17T14:22:50;17.20;99.90
14908;DHT22;7545;52.092;7.006;2022-10-17T14:25:36;17.20;99.90
14908;DHT22;7545;52.092;7.006;2022-10-17T14:33:14;17.20;99.90
14908;DHT22;7545;52.092;7.006;2022-10-17T14:35:55;17.20;99.90
14908;DHT22;7545;52.092;7.006;2022-10-17T14:38:22;17.20;99.90
14908;DHT22;7545;52.092;7.006;2022-10-17T14:40:52;17.10;99.90
14908;DHT22;7545;52.092;7.006;2022-10-17T14:43:22;17.20;99.90
14908;DHT22;7545;52.092;7.006;2022-10-17T14:45:48;17.20;99.90
14908;DHT22;7545;52.092;7.006;2022-10-17T14:48:17;17.20;99.90
14908;DHT22;7545;52.092;7.006;2022-10-17T14:51:10;17.10;99.90
14908;DHT22;7545;52.092;7.006;2022-10-17T14:53:36;17.20;99.90
14908;DHT22;7545;52.092;7.006;2022-10-17T14:56:20;17.10;99.90
14908;DHT22;7545;52.092;7.006;2022-10-17T14:58:46;17.20;99.90
14908;DHT22;7545;52.092;7.006;2022-10-17T15:01:11;17.10;99.90
14908;DHT22;7545;52.092;7.006;2022-10-17T15:03:37;17.10;99.90
14908;DHT22;7545;52.092;7.006;2022-10-17T15:06:22;17.20;99.90
14908;DHT22;7545;52.092;7.006;2022-10-17T15:08:48;17.20;99.90
14908;DHT22;7545;52.092;7.006;2022-10-17T15:11:14;17.20;99.90
14908;DHT22;7545;52.092;7.006;2022-10-17T15:13:39;17.20;99.90
14908;DHT22;7545;52.092;7.006;2022-10-17T15:16:18;17.30;99.90
14908;DHT22;7545;52.092;7.006;2022-10-17T15:18:43;17.10;99.90
14908;DHT22;7545;52.092;7.006;2022-10-17T15:21:13;17.10;99.90
14908;DHT22;7545;52.092;7.006;2022-10-17T15:23:39;17.10;99.90
14908;DHT22;7545;52.092;7.006;2022-10-17T15:26:20;17.20;99.90
14908;DHT22;7545;52.092;7.006;2022-10-17T15:28:46;17.10;99.90
14908;DHT22;7545;52.092;7.006;2022-10-17T15:31:14;17.10;99.90
14908;DHT22;7545;52.092;7.006;2022-10-17T15:33:40;17.10;99.90
14908;DHT22;7545;52.092;7.006;2022-10-17T15:36:28;17.10;99.90
14908;DHT22;7545;52.092;7.006;2022-10-17T15:38:56;17.10;99.90
14908;DHT22;7545;52.092;7.006;2022-10-17T15:41:24;17.10;99.90
14908;DHT22;7545;52.092;7.006;2022-10-17T15:43:50;17.10;99.90
14908;DHT22;7545;52.092;7.006;2022-10-17T15:46:26;17.10;99.90
14908;DHT22;7545;52.092;7.006;2022-10-17T15:48:53;17.10;99.90
14908;DHT22;7545;52.092;7.006;2022-10-17T15:51:19;17.10;99.90
14908;DHT22;7545;52.092;7.006;2022-10-17T15:53:45;17.10;99.90
14908;DHT22;7545;52.092;7.006;2022-10-17T15:56:33;17.10;99.90
14908;DHT22;7545;52.092;7.006;2022-10-17T15:59:03;17.10;99.90
14908;DHT22;7545;52.092;7.006;2022-10-17T16:01:30;17.00;99.90
14908;DHT22;7545;52.092;7.006;2022-10-17T16:03:57;17.00;99.90
14908;DHT22;7545;52.092;7.006;2022-10-17T16:06:23;17.00;99.90
14908;DHT22;7545;52.092;7.006;2022-10-17T16:08:50;17.00;99.90
14908;DHT22;7545;52.092;7.006;2022-10-17T16:11:32;17.00;99.90
14908;DHT22;7545;52.092;7.006;2022-10-17T16:14:00;17.00;99.90
14908;DHT22;7545;52.092;7.006;2022-10-17T16:16:27;17.00;99.90
14908;DHT22;7545;52.092;7.006;2022-10-17T16:18:52;17.00;99.90
14908;DHT22;7545;52.092;7.006;2022-10-17T16:21:19;17.00;99.90
14908;DHT22;7545;52.092;7.006;2022-10-17T16:23:46;16.90;99.90
14908;DHT22;7545;52.092;7.006;2022-10-17T16:26:11;17.00;99.90
14908;DHT22;7545;52.092;7.006;2022-10-17T16:28:44;16.90;99.90
14908;DHT22;7545;52.092;7.006;2022-10-17T16:31:31;16.90;99.90
14908;DHT22;7545;52.092;7.006;2022-10-17T16:33:58;16.90;99.90
14908;DHT22;7545;52.092;7.006;2022-10-17T16:36:24;16.90;99.90
14908;DHT22;7545;52.092;7.006;2022-10-17T16:38:50;16.90;99.90
14908;DHT22;7545;52.092;7.006;2022-10-17T16:41:25;16.90;99.90
14908;DHT22;7545;52.092;7.006;2022-10-17T16:43:51;16.90;99.90
14908;DHT22;7545;52.092;7.006;2022-10-17T16:46:17;16.90;99.90
14908;DHT22;7545;52.092;7.006;2022-10-17T16:48:44;16.90;99.90
14908;DHT22;7545;52.092;7.006;2022-10-17T16:51:11;16.80;99.90
14908;DHT22;7545;52.092;7.006;2022-10-17T16:53:37;16.80;99.90
14908;DHT22;7545;52.092;7.006;2022-10-17T16:56:38;16.80;99.90
14908;DHT22;7545;52.092;7.006;2022-10-17T16:59:04;16.80;99.90
14908;DHT22;7545;52.092;7.006;2022-10-17T17:01:29;16.80;99.90
14908;DHT22;7545;52.092;7.006;2022-10-17T17:03:55;16.80;99.90
14908;DHT22;7545;52.092;7.006;2022-10-17T17:06:24;16.80;99.90
14908;DHT22;7545;52.092;7.006;2022-10-17T17:08:50;16.80;99.90
14908;DHT22;7545;52.092;7.006;2022-10-17T17:11:19;16.80;99.90
14908;DHT22;7545;52.092;7.006;2022-10-17T17:13:45;16.70;99.90
14908;DHT22;7545;52.092;7.006;2022-10-17T17:16:13;16.70;99.90
14908;DHT22;7545;52.092;7.006;2022-10-17T17:18:40;16.70;99.90
14908;DHT22;7545;52.092;7.006;2022-10-17T17:21:07;16.70;99.90
14908;DHT22;7545;52.092;7.006;2022-10-17T17:23:35;16.70;99.90
14908;DHT22;7545;52.092;7.006;2022-10-17T17:26:04;16.70;99.90
14908;DHT22;7545;52.092;7.006;2022-10-17T17:28:31;16.70;99.90
14908;DHT22;7545;52.092;7.006;2022-10-17T17:30:57;16.70;99.90
14908;DHT22;7545;52.092;7.006;2022-10-17T17:33:23;16.60;99.90
14908;DHT22;7545;52.092;7.006;2022-10-17T17:35:56;16.60;99.90
14908;DHT22;7545;52.092;7.006;2022-10-17T17:38:22;16.60;99.90
14908;DHT22;7545;52.092;7.006;2022-10-17T17:40:49;16.60;99.90